Data for 11/09/2009

Time Sea-Level Adjusted Pressure Absolute Pressure Temperature Relative Humidity Dew Point   
(mb) (inHg) (mb) (inHg) (C) (F) (%) (C) (F)
00:05 1022 30.18 851 25.13 0.1 32.1 49 -9.6 14.8
00:10 1022 30.18 851 25.13 0.1 32.1 48 -9.6 14.8
00:15 1022 30.18 851 25.13 0.1 32.3 48 -9.6 14.8
00:20 1022 30.18 851 25.13 -0.1 31.7 49 -9.5 14.9
00:25 1022 30.18 851 25.13 -0.2 31.7 49 -9.7 14.6
00:30 1022 30.18 851 25.13 -0 31.9 49 -9.5 14.9
00:35 1022 30.18 851 25.13 -0.1 31.8 49 -9.7 14.6
00:40 1022 30.18 851 25.13 -0.2 31.7 49 -9.6 14.7
00:45 1022 30.18 851 25.13 -0.3 31.4 50 -9.5 14.9
00:50 1022 30.18 851 25.13 -0.5 31.1 51 -9.5 14.9
00:55 1022 30.18 851 25.13 -0.7 30.8 52 -9.4 15.1
01:00 1022 30.18 851 25.13 -1.2 29.8 54 -9.4 15
01:05 1022 30.18 851 25.13 -1.3 29.6 54 -9.4 15
01:10 1022 30.18 851 25.13 -1.3 29.6 54 -9.4 15.1
01:15 1022 30.18 851 25.13 -1.3 29.7 53 -9.6 14.6
01:20 1022 30.18 851 25.13 -1.1 30 54 -9.3 15.2
01:25 1022 30.18 851 25.13 -1.4 29.5 55 -9.2 15.5
01:30 1022 30.18 851 25.13 -1.7 28.9 56 -9.4 15
01:35 1022 30.18 851 25.13 -1.7 29 55 -9.5 14.8
01:40 1022 30.18 851 25.13 -1.6 29 56 -9.4 15
01:45 1022 30.18 851 25.13 -1.7 29 56 -9.5 15
01:50 1022 30.18 852 25.16 -1.5 29.3 54 -9.5 14.8
01:55 1022 30.18 852 25.16 -1.2 29.8 53 -9.5 14.8
02:00 1022 30.18 852 25.16 -1.1 30 54 -9.4 15
02:05 1022 30.18 852 25.16 -1.5 29.3 56 -9.2 15.4
02:10 1022 30.18 852 25.16 -1.9 28.6 57 -9.4 15.1
02:15 1023 30.21 852 25.16 -1.9 28.7 56 -9.6 14.7
02:20 1023 30.21 852 25.16 -1.7 28.9 56 -9.4 15.2
02:25 1023 30.21 852 25.16 -1.9 28.6 57 -9.3 15.3
02:30 1023 30.21 852 25.16 -2.2 28.1 58 -9.3 15.3
02:35 1023 30.21 852 25.16 -2.2 28 57 -9.5 14.8
02:40 1023 30.21 852 25.16 -1.7 28.9 56 -9.5 15
02:45 1023 30.21 852 25.16 -1.4 29.4 54 -9.5 14.9
02:50 1023 30.21 852 25.16 -1.3 29.6 55 -9.3 15.2
02:55 1023 30.21 852 25.16 -1.3 29.6 55 -9.4 15.2
03:00 1023 30.21 852 25.16 -1.3 29.7 54 -9.4 15.1
03:05 1023 30.21 852 25.16 -1.2 29.8 53 -9.6 14.7
03:10 1023 30.21 852 25.16 -0.9 30.4 52 -9.5 15
03:15 1023 30.21 852 25.16 -1 30.2 52 -9.6 14.6
03:20 1023 30.21 852 25.16 -0.9 30.4 52 -9.7 14.6
03:25 1023 30.21 852 25.16 -0.9 30.3 53 -9.4 15.1
03:30 1023 30.21 852 25.16 -1.3 29.7 53 -9.6 14.8
03:35 1023 30.21 852 25.16 -1.5 29.3 54 -9.5 14.8
03:40 1023 30.21 852 25.16 -1.7 28.9 56 -9.4 15
03:45 1023 30.21 852 25.16 -2.5 27.5 59 -9.4 15.1
03:50 1023 30.21 852 25.16 -2.7 27.2 60 -9.4 15.1
03:55 1023 30.21 852 25.16 -2.6 27.3 60 -9.4 15
04:00 1023 30.21 852 25.16 -2.4 27.7 60 -9.2 15.4
04:05 1023 30.21 852 25.16 -2.5 27.6 60 -9.3 15.3
04:10 1023 30.21 852 25.16 -2.5 27.5 59 -9.5 14.9
04:15 1023 30.21 852 25.16 -2 28.3 57 -9.5 14.9
04:20 1023 30.21 852 25.16 -1.7 29 55 -9.5 14.9
04:25 1023 30.21 852 25.16 -1.7 28.9 57 -9.2 15.5
04:30 1023 30.21 852 25.16 -1.8 28.7 56 -9.5 14.9
04:35 1023 30.21 852 25.16 -1.7 28.9 56 -9.3 15.3
04:40 1023 30.21 852 25.16 -2 28.4 57 -9.5 15
04:45 1023 30.21 852 25.16 -2 28.4 57 -9.4 15
04:50 1023 30.21 852 25.16 -1.9 28.5 57 -9.4 15.1
04:55 1023 30.21 852 25.16 -2.1 28.3 57 -9.5 14.9
05:00 1023 30.21 852 25.16 -1.8 28.8 56 -9.5 14.9
05:05 1023 30.21 852 25.16 -1.5 29.2 55 -9.4 15
05:10 1023 30.21 852 25.16 -1.6 29.1 55 -9.6 14.8
05:15 1023 30.21 852 25.16 -1.6 29.1 55 -9.5 15
05:20 1023 30.21 852 25.16 -1.9 28.6 56 -9.5 14.9
05:25 1023 30.21 852 25.16 -1.9 28.5 56 -9.6 14.7
05:30 1023 30.21 852 25.16 -2.1 28.3 57 -9.6 14.8
05:35 1023 30.21 852 25.16 -2.3 27.9 58 -9.4 15.1
05:40 1023 30.21 852 25.16 -2.4 27.6 59 -9.4 15
05:45 1023 30.21 852 25.16 -2.5 27.5 60 -9.2 15.4
05:50 1023 30.21 852 25.16 -2.5 27.6 61 -9.1 15.7
05:55 1023 30.21 852 25.16 -2.7 27.2 61 -9.1 15.7
06:00 1023 30.21 852 25.16 -2.8 26.9 62 -9.1 15.6
06:05 1023 30.21 852 25.16 -2.7 27.1 61 -9.3 15.3
06:10 1023 30.21 852 25.16 -2.6 27.3 60 -9.3 15.3
06:15 1023 30.21 852 25.16 -2.4 27.6 60 -9.2 15.4
06:20 1023 30.21 852 25.16 -2.4 27.7 60 -9.1 15.5
06:25 1023 30.21 852 25.16 -2.5 27.6 59 -9.4 15.2
06:30 1023 30.21 852 25.16 -2.3 27.9 57 -9.6 14.7
06:35 1023 30.21 852 25.16 -2.3 27.9 57 -9.7 14.5
06:40 1023 30.21 852 25.16 -2.2 28.1 55 -9.9 14.1
06:45 1023 30.21 852 25.16 -2.1 28.2 54 -10.2 13.6
06:50 1023 30.21 853 25.19 -2 28.4 55 -10 14.1
06:55 1023 30.21 853 25.19 -2 28.5 55 -9.9 14.2
07:00 1023 30.21 853 25.19 -2.4 27.8 57 -9.7 14.6
07:05 1023 30.21 853 25.19 -2.8 26.9 60 -9.5 14.8
07:10 1023 30.21 852 25.16 -3.1 26.4 61 -9.5 14.9
07:15 1023 30.21 852 25.16 -3 26.6 60 -9.7 14.6
07:20 1023 30.21 852 25.16 -2.8 27 60 -9.5 14.9
07:25 1023 30.21 852 25.16 -2.7 27.1 60 -9.4 15.1
07:30 1023 30.21 852 25.16 -2.8 27 59 -9.7 14.5
07:35 1023 30.21 853 25.19 -2.2 28.1 56 -9.9 14.2
07:40 1023 30.21 852 25.16 -1.4 29.5 53 -9.8 14.4
07:45 1023 30.21 853 25.19 -1.1 30.1 50 -10.2 13.7
07:50 1023 30.21 853 25.19 -0.7 30.8 50 -9.8 14.3
07:55 1023 30.21 853 25.19 -0.8 30.5 51 -9.8 14.4
08:00 1024 30.24 853 25.19 -1 30.2 51 -9.9 14.1
08:05 1024 30.24 853 25.19 -0.8 30.5 50 -10 14
08:10 1024 30.24 853 25.19 -0.7 30.7 49 -10.1 13.7
08:15 1024 30.24 853 25.19 -0.6 30.8 49 -10.1 13.9
08:20 1024 30.24 853 25.19 -0.4 31.2 47 -10.4 13.2
08:25 1024 30.24 853 25.19 0.2 32.3 46 -10.1 13.9
08:30 1024 30.24 853 25.19 0.4 32.7 47 -9.7 14.5
08:35 1024 30.24 853 25.19 0.5 33 46 -9.8 14.4
08:40 1024 30.24 853 25.19 0.8 33.4 46 -9.6 14.8
08:45 1024 30.24 853 25.19 1.2 34.2 45 -9.5 14.9
08:50 1024 30.24 853 25.19 1.3 34.4 45 -9.4 15
08:55 1024 30.24 853 25.19 1.4 34.5 44 -9.5 14.9
09:00 1024 30.24 853 25.19 1.6 34.8 42 -9.9 14.2
09:05 1024 30.24 853 25.19 2 35.6 42 -9.8 14.4
09:10 1024 30.24 853 25.19 2.4 36.4 40 -9.8 14.3
09:15 1024 30.24 853 25.19 2.7 36.8 39 -9.9 14.2
09:20 1024 30.24 853 25.19 3.1 37.5 38 -9.8 14.3
09:25 1024 30.24 853 25.19 3.1 37.7 38 -9.9 14.2
09:30 1024 30.24 853 25.19 3.2 37.8 38 -9.6 14.7
09:35 1024 30.24 853 25.19 3.4 38.1 37 -9.9 14.3
09:40 1024 30.24 853 25.19 3.8 38.9 36 -10 14
09:45 1023 30.21 853 25.19 4.1 39.4 34 -10.5 13.1
09:50 1023 30.21 853 25.19 4.3 39.7 34 -10.4 13.3
09:55 1023 30.21 853 25.19 4.8 40.7 33 -10.1 13.9
10:00 1023 30.21 853 25.19 5.3 41.5 31 -10.5 13.2
10:05 1023 30.21 853 25.19 5.3 41.5 32 -10.2 13.6
10:10 1023 30.21 853 25.19 5.6 42 30 -10.5 13
10:15 1023 30.21 853 25.19 6 42.8 27 -11.5 11.4
10:20 1023 30.21 853 25.19 5.7 42.3 30 -10.4 13.3
10:25 1023 30.21 853 25.19 5.8 42.4 35 -8.5 16.6
10:30 1023 30.21 853 25.19 6 42.8 38 -7.4 18.6
10:35 1023 30.21 853 25.19 5 41 40 -7.5 18.4
10:40 1023 30.21 853 25.19 4 39.1 40 -8.4 17
10:45 1023 30.21 853 25.19 4.4 39.9 40 -8.2 17.2
10:50 1023 30.21 852 25.16 4 39.1 43 -7.4 18.6
10:55 1023 30.21 852 25.16 4.7 40.5 40 -7.9 17.8
11:00 1023 30.21 852 25.16 4.3 39.8 39 -8.3 17
11:05 1023 30.21 852 25.16 4.2 39.6 40 -8.4 16.9
11:10 1023 30.21 852 25.16 4.7 40.4 35 -9.5 14.9
11:15 1023 30.21 852 25.16 4.9 40.8 35 -9.3 15.3
11:20 1023 30.21 852 25.16 5.2 41.4 34 -9.3 15.3
11:25 1023 30.21 852 25.16 6.4 43.5 32 -9.2 15.5
11:30 1023 30.21 852 25.16 7 44.6 32 -8.8 16.2
11:35 1023 30.21 852 25.16 7.3 45.2 31 -8.8 16.2
11:40 1023 30.21 852 25.16 7.5 45.4 31 -8.7 16.3
11:45 1023 30.21 852 25.16 7.5 45.6 31 -8.7 16.3
11:50 1023 30.21 852 25.16 7.6 45.8 30 -8.7 16.4
11:55 1023 30.21 852 25.16 7.7 45.8 31 -8.5 16.7
12:00 1022 30.18 852 25.16 7 44.7 33 -8.3 17
12:05 1022 30.18 852 25.16 7 44.6 31 -8.9 16
12:10 1022 30.18 851 25.13 7.2 44.9 32 -8.3 17
12:15 1022 30.18 851 25.13 6.1 42.9 33 -8.9 16
12:20 1022 30.18 851 25.13 6.9 44.4 31 -9.2 15.5
12:25 1022 30.18 851 25.13 6.5 43.6 32 -9 15.7
12:30 1022 30.18 851 25.13 6.9 44.4 31 -9.2 15.4
12:35 1022 30.18 851 25.13 6.8 44.2 32 -8.9 15.9
12:40 1022 30.18 851 25.13 6.6 43.8 32 -8.9 16
12:45 1022 30.18 851 25.13 7.2 44.9 29 -9.5 14.9
12:50 1022 30.18 851 25.13 7.3 45.2 30 -9 15.8
12:55 1021 30.15 851 25.13 7 44.6 30 -9.2 15.4
13:00 1021 30.15 851 25.13 7.4 45.2 30 -9.2 15.5
13:05 1021 30.15 851 25.13 8.4 47.1 29 -8.8 16.2
13:10 1021 30.15 851 25.13 9.2 48.6 27 -8.7 16.4
13:15 1021 30.15 851 25.13 10.2 50.3 26 -8.5 16.7
13:20 1021 30.15 851 25.13 10.6 51.1 26 -8.2 17.3
13:25 1021 30.15 851 25.13 10.9 51.6 25 -8.1 17.4
13:30 1021 30.15 851 25.13 9.9 49.9 28 -7.9 17.8
13:35 1021 30.15 851 25.13 10.2 50.4 26 -8.6 16.5
13:40 1021 30.15 850 25.1 11.1 52 25 -8.3 17.1
13:45 1021 30.15 850 25.1 10.8 51.5 27 -7.7 18.2
13:50 1021 30.15 850 25.1 9.3 48.7 27 -8.6 16.5
13:55 1021 30.15 850 25.1 9.6 49.2 26 -8.8 16.2
14:00 1021 30.15 850 25.1 11 51.7 24 -8.9 16
14:05 1021 30.15 850 25.1 9.8 49.7 27 -8.1 17.4
14:10 1021 30.15 850 25.1 9.4 49 26 -9.2 15.5
14:15 1021 30.15 850 25.1 11.1 51.9 24 -8.7 16.4
14:20 1021 30.15 850 25.1 11.3 52.3 23 -8.8 16.1
14:25 1021 30.15 850 25.1 10.6 51.1 26 -8.1 17.4
14:30 1020 30.12 850 25.1 9.4 48.9 26 -8.9 15.9
14:35 1020 30.12 850 25.1 9.7 49.5 27 -8.5 16.7
14:40 1020 30.12 850 25.1 9.4 48.8 27 -8.8 16.2
14:45 1020 30.12 850 25.1 10.1 50.1 25 -9.3 15.2
14:50 1020 30.12 850 25.1 9.9 49.7 26 -8.6 16.5
14:55 1020 30.12 850 25.1 9.7 49.5 27 -8.6 16.5
15:00 1020 30.12 850 25.1 10.1 50.1 25 -8.9 15.9
15:05 1020 30.12 850 25.1 10.7 51.2 25 -8.8 16.2
15:10 1020 30.12 850 25.1 10.6 51 25 -8.7 16.3
15:15 1021 30.15 850 25.1 11.5 52.7 23 -8.7 16.3
15:20 1020 30.12 850 25.1 11.8 53.3 22 -9 15.8
15:25 1021 30.15 850 25.1 11.7 53.1 23 -8.9 16
15:30 1021 30.15 850 25.1 11.7 53.1 23 -8.9 16
15:35 1021 30.15 850 25.1 11.3 52.3 23 -9.3 15.3
15:40 1021 30.15 850 25.1 11.6 52.9 22 -9.2 15.4
15:45 1020 30.12 850 25.1 11.8 53.2 22 -9.5 15
15:50 1020 30.12 850 25.1 11.4 52.6 23 -9.1 15.6
15:55 1020 30.12 849 25.07 10.9 51.7 23 -9.2 15.5
16:00 1020 30.12 849 25.07 10.7 51.2 23 -9.8 14.4
16:05 1020 30.12 849 25.07 10.4 50.6 23 -10 13.9
16:10 1020 30.12 849 25.07 10.3 50.5 23 -9.8 14.4
16:15 1020 30.12 849 25.07 10 49.9 24 -9.6 14.8
16:20 1020 30.12 849 25.07 9.6 49.3 24 -9.9 14.2
16:25 1020 30.12 849 25.07 9.8 49.6 24 -9.9 14.2
16:30 1020 30.12 849 25.07 9.7 49.5 24 -10 14
16:35 1020 30.12 849 25.07 9.9 49.8 24 -10 14.1
16:40 1020 30.12 849 25.07 9.3 48.8 24 -10 13.9
16:45 1020 30.12 849 25.07 8.9 48 26 -9.8 14.4
16:50 1020 30.12 849 25.07 8.7 47.6 26 -9.8 14.4
16:55 1020 30.12 849 25.07 8.3 47 28 -9.2 15.5
17:00 1020 30.12 849 25.07 7.8 46.1 30 -8.6 16.6
17:05 1020 30.12 849 25.07 7.7 45.8 32 -8 17.6
17:10 1020 30.12 849 25.07 7.4 45.3 33 -7.9 17.9
17:15 1020 30.12 849 25.07 6.8 44.3 35 -7.6 18.3
17:20 1020 30.12 849 25.07 6 42.8 36 -8.1 17.3
17:25 1020 30.12 849 25.07 6.2 43.1 34 -8.6 16.6
17:30 1020 30.12 849 25.07 5.5 41.9 38 -7.6 18.3
17:35 1020 30.12 849 25.07 4.6 40.3 39 -8.2 17.2
17:40 1020 30.12 849 25.07 4.8 40.7 34 -9.8 14.4
17:45 1020 30.12 849 25.07 5.4 41.7 31 -10.5 13.2
17:50 1020 30.12 849 25.07 5.4 41.8 32 -10.1 13.9
17:55 1020 30.12 849 25.07 5.2 41.4 33 -9.7 14.6
18:00 1020 30.12 849 25.07 4.7 40.5 33 -10.2 13.7
18:05 1020 30.12 849 25.07 4.7 40.5 32 -10.6 13
18:10 1020 30.12 849 25.07 4.7 40.5 30 -11.5 11.2
18:15 1020 30.12 849 25.07 5 40.9 28 -12.1 10.2
18:20 1020 30.12 849 25.07 5.2 41.4 27 -12.2 10
18:25 1020 30.12 849 25.07 5.3 41.5 26 -12.5 9.5
18:30 1020 30.12 849 25.07 5.5 41.9 25 -13.2 8.2
18:35 1020 30.12 849 25.07 5.4 41.7 27 -12.4 9.7
18:40 1020 30.12 849 25.07 5.1 41.2 26 -12.7 9.1
18:45 1020 30.12 849 25.07 5.1 41.2 25 -13.3 8.1
18:50 1020 30.12 849 25.07 5.3 41.5 25 -13.3 8.1
18:55 1020 30.12 849 25.07 5.3 41.6 25 -13 8.7
19:00 1020 30.12 849 25.07 5.4 41.7 25 -13 8.6
19:05 1020 30.12 849 25.07 5.3 41.5 25 -13.4 7.9
19:10 1020 30.12 849 25.07 5.7 42.2 24 -13.5 7.6
19:15 1020 30.12 849 25.07 5.9 42.6 24 -13.4 8
19:20 1020 30.12 849 25.07 5.8 42.5 24 -13.1 8.4
19:25 1020 30.12 849 25.07 5.6 42 25 -13 8.7
19:30 1020 30.12 849 25.07 5.4 41.7 25 -13.1 8.4
19:35 1019 30.09 849 25.07 5.4 41.7 25 -13 8.6
19:40 1019 30.09 849 25.07 5.2 41.4 26 -12.9 8.8
19:45 1019 30.09 849 25.07 4.9 40.8 28 -12.3 9.8
19:50 1019 30.09 849 25.07 4.6 40.3 27 -12.7 9.1
19:55 1019 30.09 849 25.07 4.9 40.9 26 -12.9 8.7
20:00 1019 30.09 849 25.07 5 41 25 -13.3 8
20:05 1019 30.09 849 25.07 5.2 41.4 27 -12.5 9.4
20:10 1019 30.09 849 25.07 4.9 40.9 27 -12.5 9.5
20:15 1019 30.09 849 25.07 4.7 40.5 28 -12.4 9.7
20:20 1019 30.09 849 25.07 4.6 40.3 26 -13.3 8.1
20:25 1019 30.09 848 25.04 4.9 40.9 27 -12.4 9.7
20:30 1019 30.09 848 25.04 4.6 40.3 27 -12.8 9
20:35 1019 30.09 848 25.04 5.1 41.1 26 -13 8.6
20:40 1019 30.09 848 25.04 5.4 41.7 25 -13.1 8.5
20:45 1019 30.09 848 25.04 5.5 41.9 25 -13.1 8.4
20:50 1019 30.09 848 25.04 5.6 42 26 -12.7 9.1
20:55 1019 30.09 848 25.04 5.3 41.5 26 -12.7 9.1
21:00 1019 30.09 848 25.04 5 40.9 28 -12.3 9.9
21:05 1019 30.09 848 25.04 4.8 40.6 27 -12.5 9.4
21:10 1019 30.09 848 25.04 4.9 40.9 27 -12.5 9.5
21:15 1019 30.09 848 25.04 4.9 40.9 27 -12.7 9.2
21:20 1019 30.09 848 25.04 5 41.1 27 -12.6 9.4
21:25 1019 30.09 848 25.04 5 40.9 27 -12.4 9.7
21:30 1019 30.09 848 25.04 4.9 40.9 28 -12.3 9.8
21:35 1019 30.09 848 25.04 4.8 40.7 28 -12.2 10.1
21:40 1019 30.09 848 25.04 4.5 40.2 29 -12.2 10
21:45 1019 30.09 848 25.04 4.7 40.4 28 -12.2 10.1
21:50 1019 30.09 848 25.04 4.8 40.6 28 -12.1 10.1
21:55 1019 30.09 848 25.04 4.8 40.6 28 -12.1 10.2
22:00 1019 30.09 848 25.04 4.6 40.3 30 -11.6 11
22:05 1019 30.09 848 25.04 4.3 39.7 30 -11.7 10.9
22:10 1019 30.09 848 25.04 4.2 39.5 31 -11.7 11
22:15 1018 30.06 848 25.04 4.1 39.4 31 -11.6 11.2
22:20 1018 30.06 848 25.04 4.1 39.4 30 -11.8 10.8
22:25 1018 30.06 848 25.04 4.4 39.9 30 -11.8 10.8
22:30 1018 30.06 848 25.04 4.3 39.8 31 -11.5 11.4
22:35 1018 30.06 848 25.04 4.4 40 30 -11.6 11.2
22:40 1018 30.06 848 25.04 4.3 39.8 31 -11.6 11.2
22:45 1018 30.06 848 25.04 4.3 39.7 31 -11.5 11.3
22:50 1018 30.06 848 25.04 4.4 39.9 30 -11.5 11.3
22:55 1018 30.06 847 25.01 4.5 40.1 31 -11.4 11.5
23:00 1018 30.06 847 25.01 4.6 40.3 30 -11.6 11.2
23:05 1018 30.06 847 25.01 4.7 40.5 30 -11.5 11.3
23:10 1018 30.06 847 25.01 4.9 40.9 29 -11.5 11.2
23:15 1018 30.06 847 25.01 5 41 30 -11.4 11.5
23:20 1018 30.06 847 25.01 4.6 40.3 31 -11.2 11.9
23:25 1018 30.06 847 25.01 4.4 39.9 30 -11.5 11.3
23:30 1018 30.06 847 25.01 4.7 40.5 30 -11.5 11.3
23:35 1018 30.06 847 25.01 4.8 40.7 30 -11.4 11.5
23:40 1018 30.06 847 25.01 4.8 40.7 30 -11.2 11.8
23:45 1018 30.06 847 25.01 4.9 40.8 29 -11.9 10.6
23:50 1018 30.06 847 25.01 5.1 41.2 29 -11.4 11.5
23:55 1018 30.06 847 25.01 5 41 29 -11.5 11.2
24:00 1018 30.06 847 25.01 5.3 41.5 28 -11.7 10.9